Time;durP1;ratioP1;P1;durP2;ratioP2;P2;SDS_P1;SDS_P2;PMS_P1;PMS_P2;Temp;Humidity;BMP_temperature;BMP_pressure;BME280_temperature;BME280_humidity;BME280_pressure;Samples;Min_cycle;Max_cycle;Signal;HPM_P1;HPM_P2
2022/09/14 00:00:31;;;;;;;3.9;1.1;;;;;;;;;;;;;
2022/09/14 00:02:56;;;;;;;1.6;1.1;;;;;;;;;;;;;
2022/09/14 00:05:21;;;;;;;3.1;1.2;;;;;;;;;;;;;
2022/09/14 00:07:46;;;;;;;2.6;1.1;;;;;;;;;;;;;
2022/09/14 00:10:11;;;;;;;1.9;1.1;;;;;;;;;;;;;
2022/09/14 00:12:36;;;;;;;1.5;1.1;;;;;;;;;;;;;
2022/09/14 00:15:03;;;;;;;1.6;0.8;;;;;;;;;;;;;
2022/09/14 00:17:28;;;;;;;3.3;1.3;;;;;;;;;;;;;
2022/09/14 00:19:53;;;;;;;2.1;1;;;;;;;;;;;;;
2022/09/14 00:22:18;;;;;;;2.4;1.1;;;;;;;;;;;;;
2022/09/14 00:24:45;;;;;;;1.2;1.1;;;;;;;;;;;;;
2022/09/14 00:27:11;;;;;;;1.8;1.2;;;;;;;;;;;;;
2022/09/14 00:29:37;;;;;;;1.7;1;;;;;;;;;;;;;
2022/09/14 00:32:02;;;;;;;1.8;1.1;;;;;;;;;;;;;
2022/09/14 00:34:28;;;;;;;5.9;1.3;;;;;;;;;;;;;
2022/09/14 00:36:53;;;;;;;2.5;1.3;;;;;;;;;;;;;
2022/09/14 00:39:19;;;;;;;2.4;1;;;;;;;;;;;;;
2022/09/14 00:41:44;;;;;;;4;1.1;;;;;;;;;;;;;
2022/09/14 00:44:11;;;;;;;1.7;1.2;;;;;;;;;;;;;
2022/09/14 00:46:36;;;;;;;2.5;1;;;;;;;;;;;;;
2022/09/14 00:49:01;;;;;;;3.9;1.6;;;;;;;;;;;;;
2022/09/14 00:51:29;;;;;;;2.3;1;;;;;;;;;;;;;
2022/09/14 00:53:54;;;;;;;1.7;1.2;;;;;;;;;;;;;
2022/09/14 00:56:19;;;;;;;2.2;1.2;;;;;;;;;;;;;
2022/09/14 00:58:44;;;;;;;1.6;1;;;;;;;;;;;;;
2022/09/14 01:01:10;;;;;;;2.1;1.3;;;;;;;;;;;;;
2022/09/14 01:03:35;;;;;;;2.4;1;;;;;;;;;;;;;
2022/09/14 01:06:01;;;;;;;2;1;;;;;;;;;;;;;
2022/09/14 01:08:26;;;;;;;1.7;1.1;;;;;;;;;;;;;
2022/09/14 01:10:52;;;;;;;1.7;0.9;;;;;;;;;;;;;
2022/09/14 01:13:19;;;;;;;3.6;1.2;;;;;;;;;;;;;
2022/09/14 01:15:44;;;;;;;4.6;1.3;;;;;;;;;;;;;
2022/09/14 01:18:09;;;;;;;3.6;1.2;;;;;;;;;;;;;
2022/09/14 01:20:34;;;;;;;1.3;1.1;;;;;;;;;;;;;
2022/09/14 01:23:02;;;;;;;2.6;1.2;;;;;;;;;;;;;
2022/09/14 01:25:26;;;;;;;1.8;1.1;;;;;;;;;;;;;
2022/09/14 01:27:50;;;;;;;4.8;1.1;;;;;;;;;;;;;
2022/09/14 01:30:18;;;;;;;2.8;1.1;;;;;;;;;;;;;
2022/09/14 01:32:43;;;;;;;3.6;1.1;;;;;;;;;;;;;
2022/09/14 01:35:08;;;;;;;1.4;1.3;;;;;;;;;;;;;
2022/09/14 01:37:33;;;;;;;3.9;1.5;;;;;;;;;;;;;
2022/09/14 01:40:00;;;;;;;3.5;1.3;;;;;;;;;;;;;
2022/09/14 01:42:25;;;;;;;1.4;1;;;;;;;;;;;;;
2022/09/14 01:44:51;;;;;;;3;1.1;;;;;;;;;;;;;
2022/09/14 01:47:16;;;;;;;0.8;0.8;;;;;;;;;;;;;
2022/09/14 01:49:41;;;;;;;1.6;1.1;;;;;;;;;;;;;
2022/09/14 01:52:06;;;;;;;4.1;1.3;;;;;;;;;;;;;
2022/09/14 01:54:33;;;;;;;3.9;1.3;;;;;;;;;;;;;
2022/09/14 01:56:58;;;;;;;1.5;0.9;;;;;;;;;;;;;
2022/09/14 01:59:23;;;;;;;3;1.1;;;;;;;;;;;;;
2022/09/14 02:01:48;;;;;;;1.1;0.9;;;;;;;;;;;;;
2022/09/14 02:04:14;;;;;;;2.5;1.3;;;;;;;;;;;;;
2022/09/14 02:06:40;;;;;;;2;1.4;;;;;;;;;;;;;
2022/09/14 02:09:05;;;;;;;2.3;1.1;;;;;;;;;;;;;
2022/09/14 02:11:32;;;;;;;4.9;1.2;;;;;;;;;;;;;
2022/09/14 02:13:57;;;;;;;2.6;1.4;;;;;;;;;;;;;
2022/09/14 02:16:23;;;;;;;4.6;1.6;;;;;;;;;;;;;
2022/09/14 02:18:48;;;;;;;5.2;1.7;;;;;;;;;;;;;
2022/09/14 02:21:13;;;;;;;4.3;1.2;;;;;;;;;;;;;
2022/09/14 02:23:40;;;;;;;2.7;1.4;;;;;;;;;;;;;
2022/09/14 02:26:04;;;;;;;3.2;1.7;;;;;;;;;;;;;
2022/09/14 02:28:30;;;;;;;2.7;1.1;;;;;;;;;;;;;
2022/09/14 02:30:55;;;;;;;3.1;1.2;;;;;;;;;;;;;
2022/09/14 02:33:20;;;;;;;3.1;1.5;;;;;;;;;;;;;
2022/09/14 02:35:46;;;;;;;3.1;1.1;;;;;;;;;;;;;
2022/09/14 02:38:11;;;;;;;1.7;1.3;;;;;;;;;;;;;
2022/09/14 02:40:36;;;;;;;2.6;1.4;;;;;;;;;;;;;
2022/09/14 02:43:01;;;;;;;2.8;1.7;;;;;;;;;;;;;
2022/09/14 02:45:26;;;;;;;2.7;1.2;;;;;;;;;;;;;
2022/09/14 02:47:54;;;;;;;4.5;1.5;;;;;;;;;;;;;
2022/09/14 02:50:17;;;;;;;4.8;1.1;;;;;;;;;;;;;
2022/09/14 02:52:42;;;;;;;2.5;1.1;;;;;;;;;;;;;
2022/09/14 02:55:07;;;;;;;3.1;1.1;;;;;;;;;;;;;
2022/09/14 02:57:33;;;;;;;2.1;1.3;;;;;;;;;;;;;
2022/09/14 02:59:59;;;;;;;1.5;1.1;;;;;;;;;;;;;
2022/09/14 03:02:58;;;;;;;3.3;1.4;;;;;;;;;;;;;
2022/09/14 03:05:25;;;;;;;1.5;1;;;;;;;;;;;;;
2022/09/14 03:07:50;;;;;;;2.5;1;;;;;;;;;;;;;
2022/09/14 03:10:16;;;;;;;1.8;0.8;;;;;;;;;;;;;
2022/09/14 03:12:41;;;;;;;3.2;1;;;;;;;;;;;;;
2022/09/14 03:15:12;;;;;;;4.2;1.3;;;;;;;;;;;;;
2022/09/14 03:17:40;;;;;;;1.7;1.1;;;;;;;;;;;;;
2022/09/14 03:20:05;;;;;;;1.9;0.9;;;;;;;;;;;;;
2022/09/14 03:22:30;;;;;;;3.1;1;;;;;;;;;;;;;
2022/09/14 03:24:56;;;;;;;1.4;1.2;;;;;;;;;;;;;
2022/09/14 03:27:23;;;;;;;1.5;1.1;;;;;;;;;;;;;
2022/09/14 03:29:48;;;;;;;1.4;1;;;;;;;;;;;;;
2022/09/14 03:32:13;;;;;;;5;1.8;;;;;;;;;;;;;
2022/09/14 03:34:38;;;;;;;1.5;0.9;;;;;;;;;;;;;
2022/09/14 03:37:06;;;;;;;2.8;1.6;;;;;;;;;;;;;
2022/09/14 03:39:30;;;;;;;3.9;1.1;;;;;;;;;;;;;
2022/09/14 03:41:57;;;;;;;3.2;1;;;;;;;;;;;;;
2022/09/14 03:44:22;;;;;;;2.8;1.2;;;;;;;;;;;;;
2022/09/14 03:46:48;;;;;;;4.8;1.4;;;;;;;;;;;;;
2022/09/14 03:49:13;;;;;;;3;1.3;;;;;;;;;;;;;
2022/09/14 03:51:39;;;;;;;2.8;1.2;;;;;;;;;;;;;
2022/09/14 03:54:04;;;;;;;4.6;2.7;;;;;;;;;;;;;
2022/09/14 03:56:30;;;;;;;3.8;1.4;;;;;;;;;;;;;
2022/09/14 03:58:55;;;;;;;4.6;1.3;;;;;;;;;;;;;
2022/09/14 04:02:33;;;;;;;1.4;0.9;;;;;;;18.59;80.66699;930.3864;;;;
2022/09/14 04:05:02;;;;;;;2.4;1.1;;;;;;;18.62;81.18555;930.3743;;;;
2022/09/14 04:07:27;;;;;;;2.8;1.4;;;;;;;18.56;81.40625;930.3674;;;;
2022/09/14 04:09:57;;;;;;;2.6;1.3;;;;;;;18.57;81.20898;930.3017;;;;
2022/09/14 04:12:23;;;;;;;2.9;1.4;;;;;;;18.58;81.16602;930.3828;;;;
2022/09/14 04:14:51;;;;;;;3.5;1.5;;;;;;;18.57;80.97754;930.2394;;;;
2022/09/14 04:17:16;;;;;;;3.9;1.4;;;;;;;18.61;81.08887;930.3583;;;;
2022/09/14 04:19:43;;;;;;;3.1;1.6;;;;;;;18.65;80.76172;930.3582;;;;
2022/09/14 04:22:08;;;;;;;3.4;2.1;;;;;;;18.69;80.60449;930.3851;;;;
2022/09/14 04:24:37;;;;;;;3.9;1.7;;;;;;;18.7;80.6543;930.3589;;;;
2022/09/14 04:27:02;;;;;;;3.1;1.7;;;;;;;18.72;80.8418;930.3318;;;;
2022/09/14 04:29:31;;;;;;;3.3;1.7;;;;;;;18.68;81.31152;930.2791;;;;
2022/09/14 04:31:56;;;;;;;3.6;1.4;;;;;;;18.6;81.57617;930.2717;;;;
2022/09/14 04:34:25;;;;;;;5.2;1.2;;;;;;;18.56;81.81348;930.3077;;;;
2022/09/14 04:36:50;;;;;;;2.6;1.3;;;;;;;18.44;82.14063;930.3462;;;;
2022/09/14 04:45:48;;;;;;;5.2;2.1;;;;;;;18.6;81.62402;930.3408;;;;
2022/09/14 04:48:16;;;;;;;2.2;1.5;;;;;;;18.57;81.62891;930.2894;;;;
2022/09/14 04:50:41;;;;;;;4.1;1.3;;;;;;;18.51;81.7334;930.3278;;;;
2022/09/14 04:53:10;;;;;;;3.5;1.3;;;;;;;18.53;81.62207;930.3497;;;;
2022/09/14 04:55:35;;;;;;;4.3;1.2;;;;;;;18.6;81.63379;930.2894;;;;
2022/09/14 04:58:00;;;;;;;3.6;1.3;;;;;;;18.65;81.22754;930.3211;;;;
2022/09/14 05:00:32;;;;;;;2.4;1.3;;;;;;;18.59;81.12109;930.3074;;;;
2022/09/14 05:03:02;;;;;;;3.2;1.5;;;;;;;18.51;80.55957;930.2746;;;;
2022/09/14 05:05:31;;;;;;;2.2;1.5;;;;;;;18.57;80.9668;930.3168;;;;
2022/09/14 05:07:56;;;;;;;1.3;1.2;;;;;;;18.44;81;930.3206;;;;
2022/09/14 05:10:25;;;;;;;3.1;1.1;;;;;;;18.42;81.0791;930.301;;;;
2022/09/14 05:12:50;;;;;;;1.5;1;;;;;;;18.3;81.48633;930.3861;;;;
2022/09/14 05:15:20;;;;;;;5.4;1.2;;;;;;;18.32;80.94434;930.3764;;;;
2022/09/14 05:17:45;;;;;;;2.5;1.3;;;;;;;18.46;80.79492;930.3713;;;;
2022/09/14 05:20:14;;;;;;;8.9;2.7;;;;;;;18.52;80.35352;930.4015;;;;
2022/09/14 05:22:39;;;;;;;4.7;1.8;;;;;;;18.5;80.07129;930.432;;;;
2022/09/14 05:25:07;;;;;;;10.7;5.4;;;;;;;18.52;80.65527;930.4105;;;;
2022/09/14 05:27:36;;;;;;;11.7;5.1;;;;;;;18.54;81.13379;930.4622;;;;
2022/09/14 05:30:04;;;;;;;7.2;3.3;;;;;;;18.61;81.12402;930.3875;;;;
2022/09/14 05:32:29;;;;;;;5.6;3.1;;;;;;;18.66;81.12207;930.4594;;;;
2022/09/14 05:35:04;;;;;;;7.5;3.3;;;;;;;18.68;80.89355;930.3937;;;;
2022/09/14 05:37:33;;;;;;;3;1.7;;;;;;;18.6;81.25;930.4345;;;;
2022/09/14 05:39:58;;;;;;;4.8;1.6;;;;;;;18.6;81.54297;930.5602;;;;
2022/09/14 05:42:28;;;;;;;2.2;1.2;;;;;;;18.59;81.44629;930.613;;;;
2022/09/14 05:44:59;;;;;;;5.2;1.9;;;;;;;18.62;81.13867;930.6766;;;;
2022/09/14 05:47:24;;;;;;;5.7;2;;;;;;;18.67;81.27539;930.6714;;;;
2022/09/14 05:49:49;;;;;;;5;2.2;;;;;;;18.69;81.15039;930.5883;;;;
2022/09/14 05:52:17;;;;;;;3.6;1.8;;;;;;;18.66;81.22754;930.4895;;;;
2022/09/14 05:54:42;;;;;;;4.3;2.2;;;;;;;18.6;81.59961;930.5812;;;;
2022/09/14 05:57:09;;;;;;;4.7;2.1;;;;;;;18.63;81.75684;930.5638;;;;
2022/09/14 05:59:35;;;;;;;4.7;1.7;;;;;;;18.63;81.72266;930.6445;;;;
2022/09/14 06:02:03;;;;;;;3.9;1.9;;;;;;;18.69;81.33691;930.6028;;;;
2022/09/14 06:04:32;;;;;;;3.9;1.7;;;;;;;18.79;81.34375;930.5947;;;;
2022/09/14 06:06:57;;;;;;;4.3;1.6;;;;;;;18.82;80.97754;930.5865;;;;
2022/09/14 06:09:25;;;;;;;5.4;1.9;;;;;;;18.75;81.26758;930.5911;;;;
2022/09/14 06:11:51;;;;;;;4.3;1.7;;;;;;;18.64;81.25684;930.5467;;;;
2022/09/14 06:14:19;;;;;;;5.8;1.8;;;;;;;18.65;81.5625;930.53;;;;
2022/09/14 06:16:42;;;;;;;4.9;1.2;;;;;;;18.63;79.76855;930.5881;;;;
2022/09/14 06:19:07;;;;;;;1.7;1;;;;;;;18.8;79.4834;930.5645;;;;
2022/09/14 06:21:35;;;;;;;2.4;1.2;;;;;;;18.91;76.66504;930.5762;;;;
2022/09/14 06:24:00;;;;;;;3.8;1.1;;;;;;;19.01;77.24121;930.4889;;;;
2022/09/14 06:26:27;;;;;;;2.7;1.6;;;;;;;19.02;78.56934;930.6119;;;;
2022/09/14 06:28:52;;;;;;;2.3;1.3;;;;;;;19.06;78.32129;930.5969;;;;
2022/09/14 06:31:21;;;;;;;1.9;1.3;;;;;;;19.12;77.92383;930.5885;;;;
2022/09/14 06:33:44;;;;;;;2.6;1.8;;;;;;;19.22;78.6748;930.5503;;;;
2022/09/14 06:36:12;;;;;;;3.9;1.6;;;;;;;19.32;78.35449;930.5599;;;;
2022/09/14 06:38:36;;;;;;;2;1.1;;;;;;;19.43;77.98926;930.5261;;;;
2022/09/14 06:41:05;;;;;;;4.3;1.3;;;;;;;19.54;77.27637;930.4803;;;;
2022/09/14 06:43:30;;;;;;;3.5;1.7;;;;;;;19.65;75.87109;930.5178;;;;
2022/09/14 06:46:00;;;;;;;2.1;1;;;;;;;19.83;75.53027;930.5022;;;;
2022/09/14 06:48:25;;;;;;;4.1;1.9;;;;;;;19.93;75.39551;930.5185;;;;
2022/09/14 06:50:54;;;;;;;6.7;2.5;;;;;;;20.06;75.02051;930.4716;;;;
2022/09/14 06:53:24;;;;;;;3.6;1.9;;;;;;;20.09;74.12695;930.4431;;;;
2022/09/14 06:55:54;;;;;;;5.8;2.1;;;;;;;20.13;73.51367;930.4182;;;;
2022/09/14 06:58:26;;;;;;;5.6;2;;;;;;;20.22;74.45117;930.3764;;;;
2022/09/14 07:00:54;;;;;;;4.7;1.7;;;;;;;20.24;73.17188;930.3201;;;;
2022/09/14 07:03:20;;;;;;;5.7;2.3;;;;;;;20.39;72.40332;930.3295;;;;
2022/09/14 07:05:45;;;;;;;4;1.9;;;;;;;20.6;72.68262;930.3364;;;;
2022/09/14 07:08:10;;;;;;;5.6;1.9;;;;;;;20.73;72.02539;930.3259;;;;
2022/09/14 07:10:36;;;;;;;2.6;1.7;;;;;;;20.91;70.47656;930.3199;;;;
2022/09/14 07:13:05;;;;;;;5.9;1.8;;;;;;;21.18;69.41992;930.4017;;;;
2022/09/14 07:15:39;;;;;;;3.1;1.6;;;;;;;21.44;69.30762;930.4769;;;;
2022/09/14 07:18:09;;;;;;;3;1.8;;;;;;;21.62;68.10742;930.4824;;;;
2022/09/14 07:20:38;;;;;;;4.8;1.6;;;;;;;21.83;65.85449;930.4266;;;;
2022/09/14 07:23:03;;;;;;;4.5;1.6;;;;;;;22.36;65.3584;930.4231;;;;
2022/09/14 07:25:35;;;;;;;2.3;1.5;;;;;;;22.76;63.9375;930.4496;;;;
2022/09/14 07:28:08;;;;;;;5.1;1.5;;;;;;;23.38;61.86426;930.4813;;;;
2022/09/14 07:30:36;;;;;;;3.4;1.5;;;;;;;24.12;60.57617;930.4236;;;;
2022/09/14 07:33:01;;;;;;;4.3;1.3;;;;;;;24.2;58.57324;930.5031;;;;
2022/09/14 07:35:26;;;;;;;4.2;1.4;;;;;;;24.6;56.75098;930.4969;;;;
2022/09/14 07:37:54;;;;;;;3.8;1.3;;;;;;;25.11;54.44434;930.3809;;;;
2022/09/14 07:40:26;;;;;;;4.4;1.4;;;;;;;25.47;56.51953;930.4547;;;;
2022/09/14 07:42:56;;;;;;;3.7;1;;;;;;;26.03;53.04395;930.3858;;;;
2022/09/14 07:45:26;;;;;;;1.2;1.1;;;;;;;26.14;52.7002;930.3375;;;;
2022/09/14 07:47:51;;;;;;;2.2;1.1;;;;;;;26.9;49.74512;930.4888;;;;
2022/09/14 07:54:24;;;;;;;2;1.1;;;;;;;27.82;45.77344;930.4944;;;;
2022/09/14 07:57:15;;;;;;;1.8;0.9;;;;;;;28.49;43.05957;930.5751;;;;
2022/09/14 07:59:45;;;;;;;1.9;1;;;;;;;29.19;43.16113;930.5387;;;;
2022/09/14 08:02:14;;;;;;;2.9;1;;;;;;;29;41.32227;930.4846;;;;
2022/09/14 08:04:41;;;;;;;1.9;0.8;;;;;;;29.34;41.18652;930.4202;;;;
2022/09/14 08:07:05;;;;;;;2.3;1.3;;;;;;;29.48;41.96191;930.3536;;;;
2022/09/14 08:09:35;;;;;;;1.6;1.1;;;;;;;29.69;41.44531;930.3265;;;;
2022/09/14 08:12:00;;;;;;;1.7;1;;;;;;;29.54;42.4209;930.2746;;;;
2022/09/14 08:14:32;;;;;;;1.3;0.9;;;;;;;29.81;41.68359;930.1856;;;;
2022/09/14 08:16:58;;;;;;;1.8;1.2;;;;;;;30.59;40.74023;930.2012;;;;
2022/09/14 08:19:22;;;;;;;1.4;1.3;;;;;;;30.68;39.93457;930.2545;;;;
2022/09/14 08:21:47;;;;;;;3;1.2;;;;;;;31.16;39.49902;930.3417;;;;
2022/09/14 08:24:16;;;;;;;2.6;1.1;;;;;;;32.18;39.37207;930.3217;;;;
2022/09/14 08:26:45;;;;;;;2.2;1;;;;;;;32.11;37.96289;930.3984;;;;
2022/09/14 08:29:10;;;;;;;1.5;1.1;;;;;;;32.08;37.30176;930.4734;;;;
2022/09/14 08:31:39;;;;;;;1.9;1;;;;;;;32.98;36.40234;930.4492;;;;
2022/09/14 08:34:04;;;;;;;3.2;1.5;;;;;;;31.67;37.12402;930.4235;;;;
2022/09/14 08:36:32;;;;;;;2.3;1;;;;;;;31.23;38.0332;930.4364;;;;
2022/09/14 08:38:57;;;;;;;3.3;1.5;;;;;;;32.69;36.64355;930.4476;;;;
2022/09/14 08:47:22;;;;;;;3.4;1.5;;;;;;;33.67;34.71387;930.6013;;;;
2022/09/14 08:49:53;;;;;;;3.6;1.3;;;;;;;34.12;33.50781;930.5926;;;;
2022/09/14 08:52:18;;;;;;;1.6;1;;;;;;;33.11;35.17578;930.5815;;;;
2022/09/14 08:54:43;;;;;;;2.9;1.6;;;;;;;33.21;34.87109;930.4507;;;;
2022/09/14 08:57:11;;;;;;;2.8;1.2;;;;;;;31.76;37.5625;930.5619;;;;
2022/09/14 08:59:36;;;;;;;2.5;1;;;;;;;30.91;38.46094;930.5567;;;;
2022/09/14 09:02:01;;;;;;;1.4;1.1;;;;;;;30.36;40.36035;930.5648;;;;
2022/09/14 09:04:26;;;;;;;2;1.3;;;;;;;29.73;40.54297;930.5601;;;;
2022/09/14 09:06:51;;;;;;;3.4;1.3;;;;;;;28.77;42.58691;930.6284;;;;
2022/09/14 09:09:16;;;;;;;4.1;1;;;;;;;28.99;45.2373;930.6346;;;;
2022/09/14 09:11:42;;;;;;;1.7;1.2;;;;;;;29.36;43.26172;930.5633;;;;
2022/09/14 09:14:11;;;;;;;2.1;1.4;;;;;;;29.93;43.125;930.4662;;;;
2022/09/14 09:16:42;;;;;;;3.7;1.3;;;;;;;29.53;42.75391;930.4175;;;;
2022/09/14 09:19:07;;;;;;;2.9;1.5;;;;;;;29.55;43.49512;930.3641;;;;
2022/09/14 09:21:32;;;;;;;3.6;1.2;;;;;;;29.76;45.36328;930.3361;;;;
2022/09/14 09:23:57;;;;;;;1.5;1.2;;;;;;;29.13;47.16895;930.3576;;;;
2022/09/14 09:26:26;;;;;;;3;1.4;;;;;;;29.37;45.75293;930.3917;;;;
2022/09/14 09:28:51;;;;;;;3.1;1.4;;;;;;;29.78;44.69824;930.4031;;;;
2022/09/14 09:31:18;;;;;;;3.1;1.2;;;;;;;30.16;42.37109;930.4537;;;;
2022/09/14 09:33:43;;;;;;;2.6;1.2;;;;;;;30.47;41.27832;930.4302;;;;
2022/09/14 09:36:15;;;;;;;3;1.3;;;;;;;30.28;42.37012;930.3693;;;;
2022/09/14 09:38:46;;;;;;;2.9;1.2;;;;;;;30.96;39.79199;930.2925;;;;
2022/09/14 09:41:12;;;;;;;2.1;1.3;;;;;;;30.43;39.14844;930.2414;;;;
2022/09/14 09:43:37;;;;;;;3.1;1.2;;;;;;;29.87;40.50684;930.2587;;;;
2022/09/14 09:46:04;;;;;;;3;1.4;;;;;;;29.3;41.43359;930.1611;;;;
2022/09/14 09:48:29;;;;;;;3.3;1.4;;;;;;;29.47;41.61621;930.053;;;;
2022/09/14 09:50:55;;;;;;;3.5;1.4;;;;;;;29.85;39.51563;930.043;;;;
2022/09/14 09:53:22;;;;;;;3.9;1.2;;;;;;;30.23;40.45508;930.0159;;;;
2022/09/14 09:55:54;;;;;;;3.2;1.2;;;;;;;29.94;38.95117;930.0978;;;;
2022/09/14 09:58:21;;;;;;;2.3;1.3;;;;;;;29.85;40.95898;930.1317;;;;
2022/09/14 10:00:48;;;;;;;4.1;1.5;;;;;;;30.04;41.38184;930.0276;;;;
2022/09/14 10:03:16;;;;;;;2.7;1.3;;;;;;;30.21;41.80371;929.9646;;;;
2022/09/14 10:05:48;;;;;;;2.9;1.1;;;;;;;30.39;42.14258;929.9183;;;;
2022/09/14 10:08:13;;;;;;;6.3;1.5;;;;;;;30.68;42.7793;929.8265;;;;
2022/09/14 10:10:38;;;;;;;3.1;1.4;;;;;;;31.09;40.84375;929.813;;;;
2022/09/14 10:13:03;;;;;;;2.8;1.6;;;;;;;31.64;39.0498;929.7131;;;;
2022/09/14 10:15:32;;;;;;;4;1.3;;;;;;;31.59;38.49512;929.595;;;;
2022/09/14 10:17:57;;;;;;;2.2;1.2;;;;;;;31.69;37.16211;929.5545;;;;
2022/09/14 10:20:27;;;;;;;3.9;1.3;;;;;;;31.42;42.20215;929.5634;;;;
2022/09/14 10:22:58;;;;;;;4.5;1.6;;;;;;;30.95;41.8125;929.5923;;;;
2022/09/14 10:25:23;;;;;;;3.6;1.4;;;;;;;30.85;41.74414;929.5313;;;;
2022/09/14 10:27:51;;;;;;;4.3;1.3;;;;;;;30.96;40.04297;929.4648;;;;
2022/09/14 10:30:22;;;;;;;5;1.6;;;;;;;30.05;42.62402;929.3453;;;;
2022/09/14 10:46:37;;;;;;;4.5;1.8;;;;;;;30.15;44.28027;929.2599;;;;
2022/09/14 10:49:05;;;;;;;2.6;1.4;;;;;;;30.06;41.98047;929.239;;;;
2022/09/14 10:51:38;;;;;;;3.5;1.2;;;;;;;30.1;42.75879;929.242;;;;
2022/09/14 10:54:09;;;;;;;2.5;1.4;;;;;;;30.16;42.51465;929.224;;;;
2022/09/14 10:56:33;;;;;;;4.3;1.2;;;;;;;30.16;42.96777;929.1758;;;;
2022/09/14 10:58:58;;;;;;;4.1;1.4;;;;;;;30.12;45.3877;929.1386;;;;
2022/09/14 11:01:23;;;;;;;4.4;1.3;;;;;;;29.85;47.41113;929.1181;;;;
2022/09/14 11:03:51;;;;;;;4.3;1.2;;;;;;;30.09;43.14063;928.9916;;;;
2022/09/14 11:06:16;;;;;;;3.6;1.3;;;;;;;30.24;42.58203;928.9811;;;;
2022/09/14 11:08:48;;;;;;;4.4;1.4;;;;;;;29.69;43.2334;928.9395;;;;
2022/09/14 11:11:13;;;;;;;3.6;1.2;;;;;;;29.9;42.41895;928.9205;;;;
2022/09/14 11:13:40;;;;;;;4.4;1.3;;;;;;;30.07;43.77148;928.8423;;;;
2022/09/14 11:16:10;;;;;;;3.7;1.4;;;;;;;30.19;42.94727;928.8525;;;;
2022/09/14 11:18:37;;;;;;;3.9;1.5;;;;;;;30.4;43.80371;928.8367;;;;
2022/09/14 11:21:01;;;;;;;7.2;1.9;;;;;;;30.56;43.15039;928.7327;;;;
2022/09/14 11:23:28;;;;;;;4.7;1.5;;;;;;;31.08;42.375;928.7492;;;;
2022/09/14 11:25:53;;;;;;;3.6;1.2;;;;;;;30.35;44.77734;928.7505;;;;
2022/09/14 11:28:18;;;;;;;4;1.6;;;;;;;29.06;46.43555;928.7692;;;;
2022/09/14 11:30:43;;;;;;;3.1;1.5;;;;;;;29.15;48.19629;928.7347;;;;
2022/09/14 11:33:08;;;;;;;4.5;1.4;;;;;;;29;47.83496;928.7572;;;;
2022/09/14 11:35:33;;;;;;;5.1;1.4;;;;;;;28.99;49.21484;928.6619;;;;
2022/09/14 11:37:59;;;;;;;3.5;1.5;;;;;;;29.32;46.52246;928.593;;;;
2022/09/14 11:40:24;;;;;;;6.4;1.9;;;;;;;29.53;45.01855;928.5348;;;;
2022/09/14 11:42:49;;;;;;;3.3;1.4;;;;;;;29.43;46.49805;928.4113;;;;
2022/09/14 11:45:19;;;;;;;2.8;1.2;;;;;;;29.53;49.44043;928.4025;;;;
2022/09/14 11:47:53;;;;;;;2.7;1.3;;;;;;;29.38;49.35254;928.3566;;;;
2022/09/14 11:50:29;;;;;;;5.5;1.3;;;;;;;29.48;47.58789;928.4092;;;;
2022/09/14 11:52:59;;;;;;;2.4;1.5;;;;;;;29.43;46.74707;928.3142;;;;
2022/09/14 11:55:26;;;;;;;3.8;1.6;;;;;;;28.9;48.41895;928.4131;;;;
2022/09/14 11:57:51;;;;;;;3.2;1.5;;;;;;;28.94;45.75781;928.3303;;;;
2022/09/14 12:00:21;;;;;;;4.7;1.6;;;;;;;28.44;49.29688;928.3506;;;;
2022/09/14 12:03:06;;;;;;;5.1;1.5;;;;;;;27.88;52.32324;928.3133;;;;
2022/09/14 12:05:33;;;;;;;3.1;1.6;;;;;;;28.16;51.73828;928.3134;;;;
2022/09/14 12:07:59;;;;;;;3.6;1.6;;;;;;;28.02;54.09863;928.348;;;;
2022/09/14 12:10:28;;;;;;;9.6;2;;;;;;;28.08;50.87305;928.315;;;;
2022/09/14 12:12:53;;;;;;;5.7;1.5;;;;;;;27.93;50.45215;928.3397;;;;
2022/09/14 12:15:18;;;;;;;4.2;1.5;;;;;;;28.14;51.93848;928.3811;;;;
2022/09/14 12:17:51;;;;;;;4.3;1.8;;;;;;;28.33;49.45215;928.3391;;;;
2022/09/14 12:20:21;;;;;;;4.3;1.6;;;;;;;28.46;49.01465;928.3328;;;;
2022/09/14 12:22:46;;;;;;;5.4;2.1;;;;;;;28.6;49.20801;928.3383;;;;
2022/09/14 12:25:19;;;;;;;7.5;1.5;;;;;;;28.7;49.62305;928.3361;;;;
2022/09/14 12:27:44;;;;;;;3.5;1.2;;;;;;;28.89;48.52539;928.3156;;;;
2022/09/14 12:30:09;;;;;;;3.3;1.4;;;;;;;28.97;47.98633;928.2994;;;;
2022/09/14 12:32:35;;;;;;;2.7;1.5;;;;;;;28.91;48.95703;928.3596;;;;
2022/09/14 12:35:00;;;;;;;5.1;1.4;;;;;;;28.78;49.67871;928.345;;;;
2022/09/14 12:37:26;;;;;;;4.8;1.6;;;;;;;28.57;52.09375;928.3279;;;;
2022/09/14 12:39:53;;;;;;;5;1.7;;;;;;;27.93;54.25391;928.3459;;;;
2022/09/14 12:42:33;;;;;;;5.8;1.6;;;;;;;27.6;55.22266;928.3381;;;;
2022/09/14 12:45:02;;;;;;;7;1.8;;;;;;;27.73;53.52832;928.3617;;;;
2022/09/14 12:47:28;;;;;;;6.4;2.1;;;;;;;27.71;52.94531;928.3773;;;;
2022/09/14 12:49:55;;;;;;;7.4;2.1;;;;;;;27.64;52.40332;928.375;;;;
2022/09/14 12:52:21;;;;;;;7;1.8;;;;;;;27.57;52.98828;928.3628;;;;
2022/09/14 12:54:46;;;;;;;3.8;1.6;;;;;;;27.47;52.67969;928.3067;;;;
2022/09/14 12:57:12;;;;;;;6.6;1.5;;;;;;;27.35;51.75293;928.4037;;;;
2022/09/14 12:59:37;;;;;;;6.4;1.9;;;;;;;27.31;51.81836;928.3514;;;;
2022/09/14 13:02:02;;;;;;;5.1;1.4;;;;;;;27.18;51.4707;928.3873;;;;
2022/09/14 13:04:27;;;;;;;2.4;1.2;;;;;;;27.14;52.33203;928.3848;;;;
2022/09/14 13:06:54;;;;;;;3.4;1.6;;;;;;;26.83;55.16406;928.3978;;;;
2022/09/14 13:09:20;;;;;;;3.9;1.4;;;;;;;26.34;60.17969;928.4264;;;;
2022/09/14 13:11:52;;;;;;;4.2;1.7;;;;;;;25.92;60.27734;928.4091;;;;
2022/09/14 13:14:19;;;;;;;5.2;1.7;;;;;;;25.63;61.75098;928.4072;;;;
2022/09/14 13:16:44;;;;;;;4.4;1.8;;;;;;;25.51;62.44434;928.3391;;;;
2022/09/14 13:19:09;;;;;;;3.4;1.6;;;;;;;25.75;59.5459;928.275;;;;
2022/09/14 13:21:34;;;;;;;6.3;1.9;;;;;;;25.71;57.38965;928.2483;;;;
2022/09/14 13:23:59;;;;;;;3.7;1.6;;;;;;;25.61;58.67676;928.2764;;;;
2022/09/14 13:26:24;;;;;;;4.7;1.8;;;;;;;25.73;58.20801;928.2561;;;;
2022/09/14 13:28:49;;;;;;;4.1;1.6;;;;;;;25.84;57.12207;928.2957;;;;
2022/09/14 13:31:15;;;;;;;12.7;1.8;;;;;;;25.8;58.55859;928.3105;;;;
2022/09/14 13:33:40;;;;;;;3.8;1.7;;;;;;;25.82;56.48047;928.2935;;;;
2022/09/14 13:36:07;;;;;;;4.4;1.5;;;;;;;25.88;56.89063;928.373;;;;
2022/09/14 13:38:33;;;;;;;4.7;1.8;;;;;;;25.74;57.88965;928.4283;;;;
2022/09/14 13:41:01;;;;;;;5.2;1.6;;;;;;;25.68;57.97754;928.4727;;;;
2022/09/14 13:43:26;;;;;;;4.2;1.7;;;;;;;25.48;58.91992;928.4597;;;;
2022/09/14 13:45:54;;;;;;;1.8;1.5;;;;;;;25.41;57.55273;928.4581;;;;
2022/09/14 13:48:19;;;;;;;6;1.6;;;;;;;25.17;59.35059;928.5385;;;;
2022/09/14 13:51:11;;;;;;;5.2;1.7;;;;;;;25.17;59.51563;928.5295;;;;
2022/09/14 13:53:20;;;;;;;5.4;1.7;;;;;;;24.92;60.55664;928.6038;;;;
2022/09/14 13:55:46;;;;;;;4.5;1.8;;;;;;;24.95;60.86719;928.6465;;;;
2022/09/14 13:58:11;;;;;;;5.4;2;;;;;;;25.02;60.54688;928.733;;;;
2022/09/14 14:00:36;;;;;;;3.6;1.6;;;;;;;25.02;60.25195;928.8601;;;;
2022/09/14 14:03:06;;;;;;;6.7;2.4;;;;;;;25.02;60.93457;928.8741;;;;
2022/09/14 14:05:31;;;;;;;3.6;1.5;;;;;;;25.02;61.6084;928.9236;;;;
2022/09/14 14:07:56;;;;;;;4.5;2;;;;;;;25.05;61.5166;928.9037;;;;
2022/09/14 14:10:24;;;;;;;3.8;1.6;;;;;;;24.99;61.75684;929.0011;;;;
2022/09/14 14:12:49;;;;;;;3.3;1.7;;;;;;;24.75;62.92676;929.0631;;;;
2022/09/14 14:15:22;;;;;;;8.7;2.6;;;;;;;24.55;64.13574;928.9236;;;;
2022/09/14 14:17:47;;;;;;;3.1;1.9;;;;;;;24.31;66.15137;928.8856;;;;
2022/09/14 14:20:15;;;;;;;5.1;1.8;;;;;;;24;68.41406;928.9024;;;;
2022/09/14 14:22:41;;;;;;;2.6;1.5;;;;;;;24.06;69.01172;928.9131;;;;
2022/09/14 14:25:06;;;;;;;3;1.7;;;;;;;24.27;67.77246;928.9587;;;;
2022/09/14 14:27:33;;;;;;;5.1;1.5;;;;;;;24.43;67.78418;928.9202;;;;
2022/09/14 14:29:59;;;;;;;5;1.9;;;;;;;24.44;69.03516;928.9335;;;;
2022/09/14 14:32:31;;;;;;;4.1;1.7;;;;;;;24.43;68.91602;928.9728;;;;
2022/09/14 14:34:56;;;;;;;4.9;2.1;;;;;;;24.45;69.16602;928.9758;;;;
2022/09/14 14:37:21;;;;;;;4.3;1.9;;;;;;;24.34;69.51465;928.9714;;;;
2022/09/14 14:39:46;;;;;;;3;1.9;;;;;;;24.28;70.5293;929.0089;;;;
2022/09/14 14:42:13;;;;;;;4.3;1.8;;;;;;;24.04;72.25684;928.9673;;;;
2022/09/14 14:44:38;;;;;;;5.3;2;;;;;;;24.01;71.49902;929.0115;;;;
2022/09/14 14:47:05;;;;;;;3.5;1.9;;;;;;;24.08;72.11133;929.0308;;;;
2022/09/14 14:49:30;;;;;;;3.3;2;;;;;;;24.08;72.63086;929.024;;;;
2022/09/14 14:51:57;;;;;;;5.6;2.1;;;;;;;24.07;72.66309;929.0769;;;;
2022/09/14 14:54:22;;;;;;;5.6;2;;;;;;;23.71;75.56738;928.9985;;;;
2022/09/14 14:56:48;;;;;;;6.8;2.2;;;;;;;23.38;77.40527;928.993;;;;
2022/09/14 14:59:14;;;;;;;4.2;2.3;;;;;;;23.47;76.94043;928.8084;;;;
2022/09/14 15:01:41;;;;;;;2.6;2.1;;;;;;;23.37;77.07617;928.959;;;;
2022/09/14 15:04:06;;;;;;;5.6;2.2;;;;;;;23.05;78.62891;929.005;;;;
2022/09/14 15:06:33;;;;;;;3.9;2;;;;;;;23.05;79.35938;929.1287;;;;
2022/09/14 15:08:58;;;;;;;4.2;2;;;;;;;22.85;80.4248;929.1476;;;;
2022/09/14 15:11:24;;;;;;;4.5;2.2;;;;;;;23.05;80.9082;929.2438;;;;
2022/09/14 15:13:49;;;;;;;4.6;2.4;;;;;;;23.25;79.75781;929.2256;;;;
2022/09/14 15:16:14;;;;;;;3.9;2;;;;;;;23.78;75.67578;929.0967;;;;
2022/09/14 15:18:40;;;;;;;4.9;2.4;;;;;;;24.25;73.35352;929.108;;;;
2022/09/14 15:21:05;;;;;;;5.2;2.3;;;;;;;24.32;73.62305;929.2158;;;;
2022/09/14 15:23:31;;;;;;;4.7;2.2;;;;;;;24.54;72.68066;929.2947;;;;
2022/09/14 15:25:56;;;;;;;5.8;2.1;;;;;;;24.53;72.88965;929.3734;;;;
2022/09/14 15:28:24;;;;;;;7.5;2.2;;;;;;;24.4;75.02734;929.3836;;;;
2022/09/14 15:30:50;;;;;;;6.5;2.1;;;;;;;24.56;73.66211;929.4147;;;;
2022/09/14 15:33:16;;;;;;;4.7;2;;;;;;;24.44;75.30469;929.384;;;;
2022/09/14 15:35:41;;;;;;;5.4;2.3;;;;;;;24.15;77.06934;929.3495;;;;
2022/09/14 15:38:07;;;;;;;4.2;2.2;;;;;;;23.95;76.72852;929.3649;;;;
2022/09/14 15:40:32;;;;;;;3.5;1.9;;;;;;;23.96;77.70703;929.3488;;;;
2022/09/14 15:43:00;;;;;;;4.3;2.2;;;;;;;24.06;76.71191;929.2148;;;;
2022/09/14 15:45:25;;;;;;;5.7;2.6;;;;;;;24.12;75.27441;929.0994;;;;
2022/09/14 15:47:52;;;;;;;7;2.2;;;;;;;24.09;75.32715;929.1555;;;;
2022/09/14 15:50:18;;;;;;;5.8;2.2;;;;;;;23.95;75.26953;929.1337;;;;
2022/09/14 15:52:50;;;;;;;4;2;;;;;;;23.23;77.41504;929.0594;;;;
2022/09/14 15:55:19;;;;;;;4.7;2.5;;;;;;;22.83;81.85547;929.1802;;;;
2022/09/14 15:57:44;;;;;;;4.7;2.3;;;;;;;22.51;83.62598;929.2445;;;;
2022/09/14 16:00:16;;;;;;;5.8;2;;;;;;;22.78;79.75586;929.2917;;;;
2022/09/14 16:02:44;;;;;;;3.9;2.2;;;;;;;22.81;78.87012;929.3122;;;;
2022/09/14 16:05:11;;;;;;;6.6;2.2;;;;;;;22.75;78.24805;929.3833;;;;
2022/09/14 16:07:35;;;;;;;4.5;1.9;;;;;;;22.53;79.77051;929.4235;;;;